Time;durP1;ratioP1;P1;durP2;ratioP2;P2;SDS_P1;SDS_P2;PMS_P1;PMS_P2;Temp;Humidity;BMP_temperature;BMP_pressure;BME280_temperature;BME280_humidity;BME280_pressure;Samples;Min_cycle;Max_cycle;Signal;HPM_P1;HPM_P2
2023/03/20 00:01:28;;;;;;;7.75;5.12;;;;;;;15.73;32.09;99557.66;4398500;32;33805;-62
2023/03/20 00:03:56;;;;;;;10.82;6.07;;;;;;;15.90;31.67;99556.84;4414642;32;33512;-62
2023/03/20 00:06:26;;;;;;;13.30;7.18;;;;;;;15.98;31.98;99553.34;4417759;32;33423;-62
2023/03/20 00:08:54;;;;;;;7.57;4.97;;;;;;;15.91;31.99;99560.38;4410984;32;34972;-61
2023/03/20 00:11:29;;;;;;;9.73;5.57;;;;;;;16.04;31.67;99560.84;4406201;32;33883;-61
2023/03/20 00:13:59;;;;;;;9.82;5.07;;;;;;;15.89;31.85;99551.56;4406207;32;34519;-62
2023/03/20 00:16:30;;;;;;;6.55;5.07;;;;;;;15.40;32.69;99546.47;4393713;32;32459;-62
2023/03/20 00:18:58;;;;;;;9.88;4.75;;;;;;;15.53;32.54;99555.03;4407179;32;32004;-62
2023/03/20 00:21:26;;;;;;;7.87;4.72;;;;;;;15.71;32.16;99554.28;4418790;32;34360;-62
2023/03/20 00:23:54;;;;;;;8.80;5.15;;;;;;;15.83;32.18;99559.28;4421185;32;34988;-62
2023/03/20 00:26:27;;;;;;;11.85;5.18;;;;;;;15.80;32.15;99565.00;4420378;32;32142;-62
2023/03/20 00:28:55;;;;;;;10.40;5.82;;;;;;;15.91;32.44;99565.78;4419641;32;35103;-62
2023/03/20 00:31:24;;;;;;;7.30;5.47;;;;;;;15.86;32.77;99558.16;4417876;32;35000;-62
2023/03/20 00:33:53;;;;;;;9.60;4.53;;;;;;;15.74;33.04;99559.37;4405395;32;33810;-62
2023/03/20 00:36:21;;;;;;;9.23;5.37;;;;;;;15.78;32.78;99555.34;4414667;32;34014;-64
2023/03/20 00:38:49;;;;;;;8.15;5.15;;;;;;;15.81;32.53;99549.66;4420238;32;34736;-62
2023/03/20 00:41:21;;;;;;;6.65;4.20;;;;;;;15.68;32.78;99557.28;4416710;32;32888;-62
2023/03/20 00:43:51;;;;;;;9.27;4.78;;;;;;;15.64;33.40;99558.56;4405459;32;33570;-62
2023/03/20 00:46:19;;;;;;;12.55;5.45;;;;;;;15.71;33.30;99555.12;4406031;32;35456;-62
2023/03/20 00:48:46;;;;;;;8.82;4.97;;;;;;;15.60;33.37;99561.56;4392934;32;33815;-63
2023/03/20 00:51:16;;;;;;;8.73;4.32;;;;;;;15.51;33.46;99559.75;4407742;32;33668;-62
2023/03/20 00:53:44;;;;;;;10.93;6.15;;;;;;;15.57;33.11;99552.91;4416122;32;33572;-63
2023/03/20 00:56:32;;;;;;;9.52;5.35;;;;;;;15.42;34.08;99549.88;4420904;32;32812;-63
2023/03/20 00:59:02;;;;;;;7.95;4.53;;;;;;;15.46;34.03;99551.25;4410754;32;33900;-62
2023/03/20 01:01:30;;;;;;;10.10;5.25;;;;;;;15.43;34.04;99550.72;4404578;32;33353;-61
2023/03/20 01:03:59;;;;;;;7.57;5.18;;;;;;;15.38;34.10;99551.19;4413492;32;34036;-62
2023/03/20 01:06:28;;;;;;;9.00;4.78;;;;;;;15.12;35.23;99551.03;4418556;32;33247;-60
2023/03/20 01:08:56;;;;;;;10.82;4.57;;;;;;;15.21;34.91;99554.66;4416095;32;33851;-61
2023/03/20 01:11:25;;;;;;;6.85;4.03;;;;;;;15.25;34.87;99556.03;4418591;32;34739;-62
2023/03/20 01:13:53;;;;;;;8.43;4.78;;;;;;;15.19;34.98;99552.13;4417441;32;32639;-62
2023/03/20 01:16:22;;;;;;;10.32;5.87;;;;;;;15.19;35.02;99556.66;4406406;32;34443;-61
2023/03/20 01:18:50;;;;;;;6.07;4.18;;;;;;;15.13;34.92;99547.31;4416508;32;33738;-61
2023/03/20 01:21:19;;;;;;;7.97;4.57;;;;;;;14.96;35.34;99551.66;4418828;32;35145;-63
2023/03/20 01:23:48;;;;;;;6.45;4.55;;;;;;;14.97;35.39;99539.88;4414104;32;34032;-61
2023/03/20 01:26:33;;;;;;;12.32;5.60;;;;;;;14.84;35.53;99542.88;4418308;32;34873;-60
2023/03/20 01:29:00;;;;;;;6.55;4.37;;;;;;;14.84;35.68;99542.03;4402681;32;34534;-61
2023/03/20 01:31:28;;;;;;;6.60;4.55;;;;;;;14.70;35.95;99532.56;4418570;32;34726;-65
2023/03/20 01:33:56;;;;;;;6.32;4.18;;;;;;;14.70;35.90;99537.09;4416579;32;33876;-62
2023/03/20 01:36:24;;;;;;;5.82;4.18;;;;;;;14.73;35.76;99528.72;4416739;32;33482;-63
2023/03/20 01:38:55;;;;;;;7.43;5.03;;;;;;;14.71;35.82;99536.13;4416161;32;33688;-63
2023/03/20 01:41:25;;;;;;;7.70;4.03;;;;;;;14.61;35.93;99528.06;4417918;32;32880;-61
2023/03/20 01:43:53;;;;;;;6.20;3.78;;;;;;;14.45;36.07;99528.66;4417205;32;33841;-62
2023/03/20 01:46:27;;;;;;;5.75;3.12;;;;;;;14.24;36.64;99530.66;4418030;32;34322;-63
2023/03/20 01:48:59;;;;;;;5.30;3.72;;;;;;;14.45;36.16;99531.34;4399693;32;32610;-62
2023/03/20 01:51:31;;;;;;;8.13;4.80;;;;;;;14.47;36.14;99537.41;4417488;32;33768;-62
2023/03/20 01:54:03;;;;;;;4.95;3.37;;;;;;;14.35;36.55;99538.56;4418322;32;34936;-61
2023/03/20 01:56:32;;;;;;;6.07;3.92;;;;;;;14.18;36.98;99535.59;4419177;32;33021;-62
2023/03/20 01:59:23;;;;;;;8.50;4.75;;;;;;;14.04;37.18;99533.34;4402692;32;33961;-63
2023/03/20 02:01:51;;;;;;;6.00;4.07;;;;;;;14.12;37.00;99532.62;4418610;32;33807;-65
2023/03/20 02:04:24;;;;;;;8.45;3.97;;;;;;;14.30;36.47;99520.16;4405839;32;32854;-64
2023/03/20 02:06:53;;;;;;;6.03;4.30;;;;;;;14.40;36.22;99517.44;4418105;32;33387;-61
2023/03/20 02:09:21;;;;;;;11.88;3.53;;;;;;;14.46;36.32;99524.94;4418827;32;32466;-63
2023/03/20 02:11:50;;;;;;;6.60;4.62;;;;;;;14.59;36.19;99525.50;4419796;32;34143;-61
2023/03/20 02:14:19;;;;;;;5.37;3.83;;;;;;;14.59;36.07;99525.50;4402152;32;33877;-63
2023/03/20 02:16:48;;;;;;;5.87;3.90;;;;;;;14.58;36.54;99521.13;4418626;32;33650;-60
2023/03/20 02:19:36;;;;;;;6.20;4.32;;;;;;;14.65;36.33;99521.41;4401544;32;33672;-63
2023/03/20 02:22:24;;;;;;;6.62;4.60;;;;;;;14.59;36.47;99520.13;4398431;32;33758;-62
2023/03/20 02:25:17;;;;;;;6.53;4.43;;;;;;;14.57;36.38;99518.56;4405847;32;34129;-64
2023/03/20 02:27:57;;;;;;;6.05;3.87;;;;;;;14.35;36.63;99517.00;4418689;32;34178;-61
2023/03/20 02:30:59;;;;;;;8.30;6.05;;;;;;;14.40;36.63;99514.75;4417443;32;33901;-62
2023/03/20 02:33:45;;;;;;;6.47;3.87;;;;;;;14.36;36.80;99508.81;4418726;32;34903;-62
2023/03/20 02:36:27;;;;;;;6.75;4.60;;;;;;;14.43;36.79;99514.47;4419263;32;35410;-63
2023/03/20 02:39:04;;;;;;;8.90;5.10;;;;;;;14.44;36.74;99508.06;4418113;32;33037;-64
2023/03/20 02:41:38;;;;;;;7.62;5.30;;;;;;;14.42;36.75;99502.00;4400410;32;34094;-63
2023/03/20 02:44:14;;;;;;;6.72;4.43;;;;;;;14.25;37.07;99500.88;4408073;32;33846;-64
2023/03/20 02:46:52;;;;;;;6.28;4.55;;;;;;;14.04;37.45;99498.37;4397277;32;33808;-63
2023/03/20 02:49:49;;;;;;;8.85;5.70;;;;;;;14.07;37.65;99495.41;4416528;32;34105;-63
2023/03/20 02:52:48;;;;;;;6.22;4.35;;;;;;;14.29;37.11;99493.41;4404381;32;32387;-63
2023/03/20 02:55:40;;;;;;;7.80;5.53;;;;;;;13.82;37.90;99496.81;4405564;32;33742;-64
2023/03/20 02:58:16;;;;;;;9.30;4.65;;;;;;;13.85;38.02;99498.37;4418921;32;32664;-62
2023/03/20 03:00:53;;;;;;;;;;;;;;;13.78;38.32;99494.56;4399204;32;32537;-63
2023/03/20 03:03:43;;;;;;;6.20;5.07;;;;;;;13.86;38.22;99498.22;4413707;32;34028;-63
2023/03/20 03:06:17;;;;;;;6.90;5.00;;;;;;;13.71;38.23;99499.66;4404004;32;32859;-63
2023/03/20 03:08:49;;;;;;;7.18;4.93;;;;;;;13.58;38.50;99508.00;4404045;32;34842;-62
2023/03/20 03:11:16;;;;;;;16.30;5.78;;;;;;;13.51;38.36;99501.44;4404679;32;35020;-62
2023/03/20 03:13:49;;;;;;;7.25;4.07;;;;;;;13.32;39.01;99513.00;4401148;32;34594;-62
2023/03/20 03:16:24;;;;;;;7.18;4.62;;;;;;;13.39;38.39;99511.50;4402931;32;34736;-63
2023/03/20 03:19:05;;;;;;;8.18;4.15;;;;;;;13.12;38.68;99512.09;4419076;32;32708;-62
2023/03/20 03:21:36;;;;;;;7.30;4.12;;;;;;;13.04;38.86;99517.31;4413728;32;34625;-62
2023/03/20 03:24:04;;;;;;;4.72;3.50;;;;;;;12.91;38.84;99516.69;4415810;32;33218;-62
2023/03/20 03:26:38;;;;;;;9.52;4.37;;;;;;;12.78;39.15;99516.91;4419145;32;35087;-63
2023/03/20 03:29:12;;;;;;;10.32;4.30;;;;;;;12.47;39.67;99524.09;4418755;32;33860;-62
2023/03/20 03:31:41;;;;;;;3.55;2.55;;;;;;;12.39;39.81;99518.53;4406383;32;33138;-62
2023/03/20 03:34:13;;;;;;;6.75;3.75;;;;;;;12.30;39.93;99521.03;4404770;32;33849;-62
2023/03/20 03:36:59;;;;;;;4.70;3.03;;;;;;;12.51;39.54;99517.47;4404700;32;33862;-63
2023/03/20 03:39:48;;;;;;;8.43;4.95;;;;;;;12.55;39.36;99521.56;4405219;32;33366;-63
2023/03/20 03:42:30;;;;;;;9.23;4.62;;;;;;;12.80;38.83;99523.00;4391737;32;33045;-63
2023/03/20 03:45:06;;;;;;;4.20;3.08;;;;;;;12.98;38.28;99520.53;4405120;32;33786;-62
2023/03/20 03:47:35;;;;;;;;;;;;;;;13.23;37.94;99517.38;4404951;32;34971;-63
2023/03/20 03:50:09;;;;;;;9.95;3.50;;;;;;;13.24;38.09;99521.78;4403945;32;33564;-62
2023/03/20 03:52:37;;;;;;;4.75;3.05;;;;;;;12.63;39.36;99518.25;4401736;32;34142;-62
2023/03/20 03:55:09;;;;;;;7.68;5.28;;;;;;;13.19;38.10;99529.37;4394066;32;32539;-62
2023/03/20 03:57:45;;;;;;;7.95;3.85;;;;;;;13.31;37.95;99531.97;4394825;32;34984;-64
2023/03/20 04:00:18;;;;;;;7.47;4.18;;;;;;;13.42;37.48;99534.56;4415283;32;34911;-62
2023/03/20 04:02:47;;;;;;;6.37;4.07;;;;;;;13.36;37.87;99538.66;4419093;32;34501;-65
2023/03/20 04:05:15;;;;;;;7.18;5.75;;;;;;;13.31;38.44;99535.50;4404548;32;33740;-61
2023/03/20 04:07:44;;;;;;;5.12;3.25;;;;;;;13.37;38.13;99539.50;4404292;32;35302;-61
2023/03/20 04:10:13;;;;;;;4.45;3.40;;;;;;;13.35;38.17;99530.72;4416600;32;34742;-64
2023/03/20 04:12:43;;;;;;;6.30;4.05;;;;;;;13.42;37.76;99532.72;4416316;32;33334;-63
2023/03/20 04:15:12;;;;;;;6.75;3.97;;;;;;;13.34;37.55;99545.16;4417715;32;33927;-67
2023/03/20 04:17:41;;;;;;;5.25;3.67;;;;;;;12.74;38.75;99542.31;4419804;32;33783;-62
2023/03/20 04:20:11;;;;;;;5.70;3.78;;;;;;;12.98;38.43;99545.56;4418396;32;34534;-63
2023/03/20 04:22:38;;;;;;;9.18;4.75;;;;;;;12.95;38.71;99543.13;4418381;32;34186;-63
2023/03/20 04:25:08;;;;;;;6.40;3.50;;;;;;;13.06;38.07;99544.88;4417596;32;34178;-61
2023/03/20 04:27:35;;;;;;;9.20;4.75;;;;;;;12.96;38.66;99554.72;4419189;32;34048;-63
2023/03/20 04:30:07;;;;;;;6.43;4.55;;;;;;;13.12;38.13;99551.53;4416614;32;34781;-64
2023/03/20 04:32:36;;;;;;;4.87;3.12;;;;;;;12.82;39.09;99548.72;4419124;32;33658;-61
2023/03/20 04:35:06;;;;;;;7.60;4.53;;;;;;;13.05;38.28;99551.25;4417336;32;33317;-62
2023/03/20 04:37:34;;;;;;;6.40;4.03;;;;;;;13.12;38.23;99549.69;4414277;32;33833;-60
2023/03/20 04:40:03;;;;;;;4.78;3.05;;;;;;;12.79;38.42;99548.16;4418502;32;33765;-62
2023/03/20 04:42:30;;;;;;;5.60;3.80;;;;;;;12.81;38.94;99551.56;4418188;32;33290;-63
2023/03/20 04:44:59;;;;;;;9.13;4.60;;;;;;;12.43;39.87;99560.25;4420205;32;33933;-63
2023/03/20 04:47:28;;;;;;;5.53;3.37;;;;;;;12.74;38.92;99551.22;4417078;32;33737;-63
2023/03/20 04:49:55;;;;;;;4.82;3.67;;;;;;;12.64;38.72;99539.59;4418233;32;34815;-62
2023/03/20 04:52:23;;;;;;;6.15;4.12;;;;;;;12.55;38.80;99543.94;4417516;32;33217;-61
2023/03/20 04:54:51;;;;;;;9.77;4.20;;;;;;;12.60;38.90;99551.56;4417580;32;33475;-63
2023/03/20 04:57:18;;;;;;;5.15;3.08;;;;;;;12.67;39.02;99549.22;4403855;32;32677;-63
2023/03/20 04:59:46;;;;;;;9.15;5.07;;;;;;;12.64;38.98;99546.78;4419907;32;33901;-61
2023/03/20 05:02:16;;;;;;;7.47;5.07;;;;;;;12.59;38.95;99547.19;4415548;32;32427;-65
2023/03/20 05:04:44;;;;;;;8.02;5.18;;;;;;;12.44;39.15;99548.50;4416926;32;33728;-65
2023/03/20 05:07:11;;;;;;;7.15;4.10;;;;;;;12.17;39.68;99549.88;4416161;32;34903;-64
2023/03/20 05:09:40;;;;;;;5.62;4.07;;;;;;;12.08;39.70;99556.03;4418965;32;35303;-62
2023/03/20 05:12:08;;;;;;;5.87;3.87;;;;;;;11.57;40.79;99556.66;4414067;32;33336;-63
2023/03/20 05:14:36;;;;;;;4.75;2.37;;;;;;;11.67;40.62;99552.22;4414005;32;33799;-62
2023/03/20 05:17:03;;;;;;;9.20;4.62;;;;;;;11.77;40.48;99565.72;4418718;32;33007;-62
2023/03/20 05:19:31;;;;;;;7.10;4.32;;;;;;;12.01;39.89;99568.25;4413505;32;34131;-62
2023/03/20 05:22:00;;;;;;;9.85;5.20;;;;;;;11.43;41.66;99573.87;4417156;32;32907;-61
2023/03/20 05:24:28;;;;;;;9.38;4.12;;;;;;;11.54;41.09;99578.34;4416169;32;33715;-64
2023/03/20 05:26:56;;;;;;;10.65;4.28;;;;;;;11.93;40.37;99568.88;4418320;32;33700;-62
2023/03/20 05:29:23;;;;;;;6.03;3.53;;;;;;;11.99;40.83;99578.25;4417703;32;33575;-62
2023/03/20 05:31:55;;;;;;;6.90;4.10;;;;;;;11.91;40.31;99575.34;4416220;32;34595;-62
2023/03/20 05:34:24;;;;;;;7.78;5.00;;;;;;;12.08;40.00;99582.84;4417533;32;35096;-62
2023/03/20 05:36:52;;;;;;;4.45;3.17;;;;;;;11.91;40.71;99578.03;4416226;32;35727;-66
2023/03/20 05:39:21;;;;;;;5.18;4.05;;;;;;;12.06;40.83;99580.28;4415144;32;33666;-63
2023/03/20 05:41:49;;;;;;;7.75;4.53;;;;;;;12.30;40.00;99577.38;4407768;32;34423;-62
2023/03/20 05:44:18;;;;;;;8.52;3.97;;;;;;;12.46;39.72;99576.94;4421337;32;33702;-62
2023/03/20 05:46:46;;;;;;;5.60;3.35;;;;;;;12.83;38.66;99579.97;4418130;32;33745;-65
2023/03/20 05:49:14;;;;;;;6.82;5.18;;;;;;;12.95;38.24;99579.91;4420271;32;35018;-62
2023/03/20 05:51:41;;;;;;;7.80;4.40;;;;;;;13.07;38.25;99589.59;4418301;32;33130;-64
2023/03/20 05:54:09;;;;;;;5.65;3.67;;;;;;;13.10;38.19;99589.31;4419917;32;34588;-62
2023/03/20 05:56:37;;;;;;;7.07;4.00;;;;;;;13.14;38.47;99590.75;4420597;32;33686;-64
2023/03/20 05:59:05;;;;;;;4.90;3.85;;;;;;;13.26;38.35;99595.06;4419873;32;32258;-62
2023/03/20 06:01:33;;;;;;;6.37;4.22;;;;;;;13.45;37.48;99596.09;4415559;32;34553;-64
2023/03/20 06:04:01;;;;;;;5.15;4.03;;;;;;;13.37;37.63;99593.25;4416869;32;33625;-66
2023/03/20 06:06:36;;;;;;;12.20;4.35;;;;;;;13.37;38.06;99601.31;4417738;32;35355;-65
2023/03/20 06:09:05;;;;;;;10.27;5.30;;;;;;;13.49;37.94;99598.41;4416924;32;33873;-61
2023/03/20 06:11:32;;;;;;;7.72;4.60;;;;;;;13.69;37.39;99604.66;4415825;32;33311;-62
2023/03/20 06:14:04;;;;;;;12.27;4.43;;;;;;;13.55;38.06;99605.06;4418112;32;33516;-63
2023/03/20 06:16:32;;;;;;;6.22;3.70;;;;;;;13.57;37.46;99607.63;4420410;32;33936;-63
2023/03/20 06:18:59;;;;;;;5.22;3.17;;;;;;;13.83;37.12;99607.94;4419409;32;34533;-63
2023/03/20 06:21:27;;;;;;;7.12;3.83;;;;;;;13.94;36.97;99611.38;4418398;32;34427;-64
2023/03/20 06:23:56;;;;;;;5.35;4.37;;;;;;;13.90;37.54;99609.09;4419304;32;32577;-63
2023/03/20 06:26:24;;;;;;;7.40;3.92;;;;;;;14.22;36.76;99600.75;4418263;32;34242;-63
2023/03/20 06:28:52;;;;;;;9.43;4.47;;;;;;;14.30;37.25;99610.84;4419819;32;33763;-65
2023/03/20 06:31:20;;;;;;;7.95;4.72;;;;;;;14.62;36.62;99607.88;4403045;32;33722;-65
2023/03/20 06:33:48;;;;;;;9.40;5.55;;;;;;;14.84;36.45;99615.62;4420388;32;33881;-64
2023/03/20 06:36:15;;;;;;;5.70;3.25;;;;;;;15.04;36.12;99612.87;4419263;32;34224;-64
2023/03/20 06:38:44;;;;;;;6.40;3.97;;;;;;;15.11;35.94;99612.16;4421208;32;35051;-66
2023/03/20 06:41:11;;;;;;;8.35;5.37;;;;;;;15.34;35.16;99611.78;4420574;32;34075;-64
2023/03/20 06:43:54;;;;;;;6.03;3.83;;;;;;;15.53;34.45;99613.53;4419046;32;33865;-63
2023/03/20 06:46:23;;;;;;;6.50;4.68;;;;;;;15.55;34.75;99615.09;4420319;32;33319;-61
2023/03/20 06:48:51;;;;;;;8.13;4.68;;;;;;;15.82;33.81;99605.31;4418330;32;33765;-64
2023/03/20 06:51:18;;;;;;;8.20;3.87;;;;;;;15.79;33.73;99611.00;4419623;32;34273;-61
2023/03/20 06:53:47;;;;;;;8.02;4.72;;;;;;;15.92;33.23;99607.94;4422527;32;33802;-64
2023/03/20 06:56:15;;;;;;;6.53;3.05;;;;;;;15.70;33.82;99617.34;4421948;32;33727;-63
2023/03/20 06:58:44;;;;;;;9.43;5.50;;;;;;;16.12;33.10;99623.03;4421275;32;32132;-66
2023/03/20 07:01:15;;;;;;;12.98;5.10;;;;;;;16.13;32.85;99623.88;4420597;32;33072;-65
2023/03/20 07:03:44;;;;;;;5.97;3.92;;;;;;;16.47;32.40;99622.19;4418836;32;34951;-63
2023/03/20 07:06:12;;;;;;;10.35;4.68;;;;;;;16.18;32.67;99630.53;4417643;32;35599;-62
2023/03/20 07:08:40;;;;;;;7.43;4.95;;;;;;;16.24;32.60;99619.09;4418278;32;32132;-62
2023/03/20 07:11:08;;;;;;;6.97;4.50;;;;;;;16.81;32.03;99621.44;4414205;32;33080;-62
2023/03/20 07:13:36;;;;;;;6.85;4.20;;;;;;;16.89;31.51;99624.22;4415248;32;33705;-65
2023/03/20 07:16:06;;;;;;;7.00;3.83;;;;;;;17.09;31.82;99626.72;4415859;32;32598;-65
2023/03/20 07:18:34;;;;;;;10.50;4.65;;;;;;;17.43;31.20;99621.31;4420897;32;34986;-65
2023/03/20 07:21:04;;;;;;;6.97;3.90;;;;;;;17.16;31.07;99627.78;4421660;32;32570;-64
2023/03/20 07:23:33;;;;;;;9.52;5.32;;;;;;;17.38;30.70;99613.69;4421862;32;32962;-67
2023/03/20 07:26:04;;;;;;;7.00;3.75;;;;;;;17.80;30.77;99626.41;4422072;32;34912;-64
2023/03/20 07:28:32;;;;;;;7.87;5.45;;;;;;;18.09;29.59;99619.72;4419952;32;33953;-67
2023/03/20 07:31:01;;;;;;;10.45;5.18;;;;;;;17.77;29.30;99618.63;4421212;32;33533;-63
2023/03/20 07:33:30;;;;;;;7.72;5.68;;;;;;;17.98;29.37;99620.03;4420070;32;33928;-65
2023/03/20 07:35:58;;;;;;;11.50;5.32;;;;;;;18.07;28.48;99621.75;4421492;32;33835;-65
2023/03/20 07:38:26;;;;;;;5.75;4.40;;;;;;;17.50;29.10;99622.38;4422745;32;34063;-65
2023/03/20 07:40:55;;;;;;;10.25;5.40;;;;;;;18.23;28.50;99616.34;4419377;32;31842;-66
2023/03/20 07:43:22;;;;;;;10.48;5.03;;;;;;;18.48;28.85;99619.09;4420166;32;34045;-64
2023/03/20 07:46:01;;;;;;;8.73;5.45;;;;;;;18.48;27.96;99619.94;4411817;32;32594;-66
2023/03/20 07:48:29;;;;;;;12.52;6.15;;;;;;;18.22;28.62;99624.66;4420493;32;32957;-68
2023/03/20 07:50:57;;;;;;;6.07;3.97;;;;;;;18.20;28.72;99632.09;4421073;32;33438;-66
2023/03/20 07:53:24;;;;;;;14.65;6.87;;;;;;;18.60;27.99;99624.03;4420631;32;32370;-65
2023/03/20 07:55:52;;;;;;;7.85;5.43;;;;;;;18.82;27.16;99621.69;4406605;32;34123;-65
2023/03/20 07:58:20;;;;;;;11.95;6.62;;;;;;;19.31;27.00;99629.72;4420331;32;31927;-67
2023/03/20 08:00:48;;;;;;;9.57;6.95;;;;;;;19.97;25.93;99633.06;4404811;32;32197;-65
2023/03/20 08:03:16;;;;;;;10.68;5.12;;;;;;;20.67;24.93;99632.09;4418248;32;34468;-65
2023/03/20 08:05:43;;;;;;;8.57;6.00;;;;;;;21.17;24.30;99631.47;4419507;32;32868;-64
2023/03/20 08:08:14;;;;;;;7.85;4.43;;;;;;;21.85;23.44;99624.06;4420775;32;33786;-64
2023/03/20 08:10:42;;;;;;;12.80;6.80;;;;;;;22.23;23.70;99632.09;4421383;32;32223;-67
2023/03/20 08:13:09;;;;;;;10.98;6.55;;;;;;;22.99;22.41;99634.31;4412584;32;34849;-65
2023/03/20 08:15:37;;;;;;;13.85;6.75;;;;;;;23.14;22.05;99620.56;4421720;32;33795;-67
2023/03/20 08:18:05;;;;;;;10.10;5.80;;;;;;;22.52;22.39;99627.56;4420872;32;34586;-65
2023/03/20 08:20:33;;;;;;;12.07;6.60;;;;;;;22.53;22.39;99630.06;4420375;32;34013;-64
2023/03/20 08:23:00;;;;;;;10.27;6.10;;;;;;;22.83;22.73;99624.50;4419787;32;33631;-65
2023/03/20 08:25:32;;;;;;;15.68;6.70;;;;;;;22.30;23.28;99619.34;4418610;32;34120;-66
2023/03/20 08:28:00;;;;;;;10.73;6.35;;;;;;;22.47;23.68;99630.88;4419899;32;33812;-65
2023/03/20 08:30:28;;;;;;;9.52;5.40;;;;;;;21.92;24.12;99632.31;4422211;32;34611;-68
2023/03/20 08:32:57;;;;;;;9.38;5.93;;;;;;;21.67;24.58;99639.97;4419650;32;34535;-63
2023/03/20 08:35:25;;;;;;;11.60;6.40;;;;;;;20.89;25.69;99633.09;4419940;32;33512;-65
2023/03/20 08:38:12;;;;;;;12.65;6.47;;;;;;;20.81;25.93;99642.19;4419133;32;35886;-65
2023/03/20 08:40:41;;;;;;;11.23;6.15;;;;;;;20.92;26.12;99641.72;4404408;32;33185;-65
2023/03/20 08:43:08;;;;;;;13.07;6.47;;;;;;;20.89;26.13;99633.09;4418495;32;33593;-65
2023/03/20 08:45:36;;;;;;;11.35;7.78;;;;;;;20.93;25.99;99645.31;4420234;32;34004;-66
2023/03/20 08:48:04;;;;;;;12.95;7.12;;;;;;;20.66;26.68;99644.00;4420878;32;33690;-69
2023/03/20 08:50:31;;;;;;;11.68;7.25;;;;;;;20.50;27.21;99644.94;4420615;32;34428;-64
2023/03/20 08:52:59;;;;;;;13.82;9.13;;;;;;;20.53;27.35;99651.94;4419758;32;33699;-64
2023/03/20 08:55:27;;;;;;;12.68;6.00;;;;;;;19.69;28.89;99646.25;4418528;32;35326;-65
2023/03/20 08:57:56;;;;;;;14.52;8.32;;;;;;;19.18;28.39;99646.53;4405958;32;33953;-68
2023/03/20 09:00:24;;;;;;;10.65;6.47;;;;;;;19.65;28.61;99647.66;4419770;32;33643;-64
2023/03/20 09:02:52;;;;;;;15.50;7.87;;;;;;;19.46;28.59;99652.41;4421310;32;33818;-63
2023/03/20 09:05:19;;;;;;;11.93;7.68;;;;;;;19.51;29.16;99660.88;4421077;32;34766;-67
2023/03/20 09:07:47;;;;;;;10.68;7.53;;;;;;;19.70;28.81;99659.66;4420309;32;33942;-65
2023/03/20 09:10:15;;;;;;;10.20;6.53;;;;;;;19.80;28.94;99658.59;4422169;32;32067;-64
2023/03/20 09:12:42;;;;;;;12.02;8.35;;;;;;;20.14;28.48;99663.72;4420109;32;33775;-66
2023/03/20 09:15:10;;;;;;;10.98;4.93;;;;;;;20.06;28.11;99651.00;4419840;32;35802;-65
2023/03/20 09:17:38;;;;;;;10.82;7.30;;;;;;;20.18;27.78;99655.00;4418607;32;33845;-65
2023/03/20 09:20:06;;;;;;;6.35;4.60;;;;;;;20.10;28.08;99657.78;4421351;32;33594;-64
2023/03/20 09:22:33;;;;;;;8.38;4.50;;;;;;;19.99;28.27;99660.88;4419202;32;34225;-65
2023/03/20 09:25:01;;;;;;;10.73;5.45;;;;;;;19.96;28.75;99662.06;4417751;32;34145;-66
2023/03/20 09:27:28;;;;;;;11.98;7.65;;;;;;;20.16;28.17;99648.06;4417446;32;33621;-65
2023/03/20 09:29:56;;;;;;;6.97;4.25;;;;;;;20.19;28.19;99651.28;4419178;32;33855;-65
2023/03/20 09:32:23;;;;;;;11.35;6.25;;;;;;;20.14;28.88;99655.56;4418699;32;33725;-64
2023/03/20 09:34:51;;;;;;;9.45;6.37;;;;;;;20.35;28.14;99657.63;4420582;32;35196;-68
2023/03/20 09:37:19;;;;;;;9.25;5.20;;;;;;;19.36;29.79;99653.62;4416064;32;34856;-65
2023/03/20 09:39:46;;;;;;;10.05;4.97;;;;;;;20.29;28.44;99652.91;4419232;32;31820;-65
2023/03/20 09:42:46;;;;;;;8.30;5.18;;;;;;;20.40;27.58;99649.78;4406157;32;33971;-65
2023/03/20 09:45:34;;;;;;;12.98;7.00;;;;;;;20.09;28.54;99642.50;4406090;32;34038;-65
2023/03/20 09:48:26;;;;;;;10.80;6.97;;;;;;;20.22;27.53;99659.06;4415576;32;34870;-64
2023/03/20 09:51:21;;;;;;;10.70;6.50;;;;;;;19.89;28.30;99649.41;4416446;32;33359;-67
2023/03/20 09:53:54;;;;;;;6.75;3.58;;;;;;;20.38;27.51;99646.38;4418974;32;33591;-65
2023/03/20 09:56:28;;;;;;;9.70;4.72;;;;;;;20.36;27.54;99651.19;4407393;32;34128;-64
2023/03/20 09:59:01;;;;;;;9.60;5.30;;;;;;;20.04;27.52;99657.66;4409415;32;32392;-64
2023/03/20 10:01:34;;;;;;;9.88;5.85;;;;;;;20.04;27.42;99649.50;4421475;32;33293;-65
2023/03/20 10:04:10;;;;;;;12.45;7.25;;;;;;;19.55;28.41;99650.53;4403885;32;34055;-65
2023/03/20 10:06:38;;;;;;;7.35;4.72;;;;;;;20.17;27.54;99647.88;4418022;32;35274;-65
2023/03/20 10:09:20;;;;;;;9.65;5.87;;;;;;;20.43;27.44;99644.00;4418462;32;33243;-65
2023/03/20 10:11:56;;;;;;;8.48;5.15;;;;;;;20.60;27.07;99651.00;4409405;32;34351;-65
2023/03/20 10:14:33;;;;;;;13.62;6.07;;;;;;;20.37;27.35;99650.97;4414811;32;33501;-66
2023/03/20 10:17:20;;;;;;;9.95;4.87;;;;;;;19.58;28.95;99647.44;4428874;32;33826;-65
2023/03/20 10:19:57;;;;;;;8.07;5.37;;;;;;;19.75;28.56;99651.00;4416258;32;32764;-66
2023/03/20 10:22:33;;;;;;;15.95;5.40;;;;;;;20.08;27.71;99643.53;4423564;32;33072;-65
2023/03/20 10:25:26;;;;;;;7.30;4.12;;;;;;;20.26;28.31;99643.25;4402312;32;33624;-65
2023/03/20 10:28:03;;;;;;;11.48;6.00;;;;;;;20.00;28.29;99640.88;4421825;32;33921;-65
2023/03/20 10:30:35;;;;;;;11.82;6.80;;;;;;;20.36;28.21;99646.59;4408564;32;34037;-65
2023/03/20 10:33:34;;;;;;;8.90;5.47;;;;;;;20.13;28.60;99641.13;4417161;32;33320;-66
2023/03/20 10:36:26;;;;;;;25.15;8.68;;;;;;;20.28;28.08;99641.19;4418212;32;34597;-65
2023/03/20 10:38:57;;;;;;;8.45;5.60;;;;;;;20.48;27.28;99634.28;4421966;32;34187;-66
2023/03/20 10:41:28;;;;;;;11.02;6.20;;;;;;;20.50;27.66;99633.22;4406795;32;34723;-64
2023/03/20 10:43:56;;;;;;;14.02;8.23;;;;;;;20.55;27.58;99639.84;4410853;32;33782;-65
2023/03/20 10:46:28;;;;;;;11.65;7.15;;;;;;;20.45;27.30;99633.78;4412762;32;33883;-66
2023/03/20 10:49:02;;;;;;;9.93;6.03;;;;;;;20.36;27.30;99633.00;4415265;32;34341;-66
2023/03/20 10:51:39;;;;;;;9.95;5.70;;;;;;;20.62;27.13;99642.69;4413392;32;33712;-67
2023/03/20 10:54:21;;;;;;;10.82;6.90;;;;;;;20.87;26.49;99640.63;4402356;32;33093;-66
2023/03/20 10:56:50;;;;;;;9.07;5.35;;;;;;;20.77;26.16;99629.13;4416006;32;34130;-66
2023/03/20 10:59:32;;;;;;;9.88;6.40;;;;;;;20.29;26.94;99631.16;4398488;32;34072;-66
2023/03/20 11:02:00;;;;;;;11.93;5.97;;;;;;;20.74;26.21;99619.47;4414664;32;34118;-67
2023/03/20 11:04:27;;;;;;;11.20;6.55;;;;;;;20.48;26.74;99622.53;4412901;32;33275;-67
2023/03/20 11:06:58;;;;;;;9.80;5.43;;;;;;;20.64;26.67;99621.59;4417902;32;33808;-68
2023/03/20 11:09:26;;;;;;;9.60;4.82;;;;;;;20.20;26.91;99617.63;4413096;32;35174;-66
2023/03/20 11:11:59;;;;;;;10.63;6.93;;;;;;;20.33;27.21;99618.91;4400082;32;33798;-68
2023/03/20 11:14:38;;;;;;;11.12;5.93;;;;;;;20.63;26.71;99618.03;4397468;32;33446;-67
2023/03/20 11:17:05;;;;;;;13.27;7.72;;;;;;;20.96;26.38;99617.72;4417085;32;33379;-65
2023/03/20 11:19:39;;;;;;;12.32;8.10;;;;;;;20.41;26.94;99614.25;4417984;32;32992;-65
2023/03/20 11:22:23;;;;;;;11.40;7.35;;;;;;;19.70;27.47;99605.34;4418278;32;33681;-66
2023/03/20 11:25:03;;;;;;;9.60;5.68;;;;;;;20.27;26.99;99615.03;4417256;32;34595;-66
2023/03/20 11:27:32;;;;;;;9.73;6.40;;;;;;;19.97;27.65;99609.47;4409598;32;33638;-65
2023/03/20 11:30:03;;;;;;;13.73;8.85;;;;;;;19.92;27.32;99603.72;4410252;32;33741;-66
2023/03/20 11:32:33;;;;;;;10.77;6.53;;;;;;;20.32;27.15;99606.34;4398589;32;34697;-66
2023/03/20 11:35:22;;;;;;;12.30;6.78;;;;;;;19.77;27.64;99600.03;4403005;32;33732;-67
2023/03/20 11:37:52;;;;;;;11.15;5.93;;;;;;;19.80;27.66;99599.69;4419874;32;33744;-66
2023/03/20 11:40:22;;;;;;;11.45;7.03;;;;;;;20.28;27.01;99602.28;4413477;32;33851;-65
2023/03/20 11:42:52;;;;;;;14.60;8.65;;;;;;;20.24;26.68;99599.94;4406649;32;33567;-66
2023/03/20 11:45:19;;;;;;;10.95;5.90;;;;;;;19.93;27.75;99601.84;4408103;32;33489;-65
2023/03/20 11:47:49;;;;;;;10.05;6.45;;;;;;;19.94;27.42;99607.09;4416191;32;33722;-67
2023/03/20 11:50:32;;;;;;;12.85;8.65;;;;;;;19.66;27.76;99606.72;4408473;32;34906;-65
2023/03/20 11:53:01;;;;;;;10.68;6.55;;;;;;;19.96;27.58;99596.87;4422049;32;33163;-68